sensor_id;sensor_type;location;lat;lon;timestamp;P1;durP1;ratioP1;P2;durP2;ratioP2
79761;SDS011;69249;42.122;24.734;2023-05-18T00:00:21;9.55;;;8.32;;
79761;SDS011;69249;42.122;24.734;2023-05-18T00:02:47;23.13;;;9.10;;
79761;SDS011;69249;42.122;24.734;2023-05-18T00:05:14;10.57;;;8.30;;
79761;SDS011;69249;42.122;24.734;2023-05-18T00:07:42;10.93;;;9.32;;
79761;SDS011;69249;42.122;24.734;2023-05-18T00:10:08;12.32;;;9.05;;
79761;SDS011;69249;42.122;24.734;2023-05-18T00:12:35;12.02;;;10.00;;
79761;SDS011;69249;42.122;24.734;2023-05-18T00:15:02;11.75;;;9.82;;
79761;SDS011;69249;42.122;24.734;2023-05-18T00:17:28;12.75;;;9.88;;
79761;SDS011;69249;42.122;24.734;2023-05-18T00:19:55;10.32;;;9.23;;
79761;SDS011;69249;42.122;24.734;2023-05-18T00:22:22;9.90;;;8.90;;
79761;SDS011;69249;42.122;24.734;2023-05-18T00:24:50;10.50;;;9.38;;
79761;SDS011;69249;42.122;24.734;2023-05-18T00:27:16;9.35;;;8.40;;
79761;SDS011;69249;42.122;24.734;2023-05-18T00:29:42;14.10;;;9.35;;
79761;SDS011;69249;42.122;24.734;2023-05-18T00:32:07;12.60;;;9.27;;
79761;SDS011;69249;42.122;24.734;2023-05-18T00:34:33;14.20;;;11.05;;
79761;SDS011;69249;42.122;24.734;2023-05-18T00:36:59;13.30;;;10.20;;
79761;SDS011;69249;42.122;24.734;2023-05-18T00:39:25;12.65;;;10.05;;
79761;SDS011;69249;42.122;24.734;2023-05-18T00:41:50;12.95;;;9.40;;
79761;SDS011;69249;42.122;24.734;2023-05-18T00:44:16;11.30;;;9.68;;
79761;SDS011;69249;42.122;24.734;2023-05-18T00:46:42;11.52;;;10.20;;
79761;SDS011;69249;42.122;24.734;2023-05-18T00:49:08;16.05;;;11.05;;
79761;SDS011;69249;42.122;24.734;2023-05-18T00:51:34;12.35;;;10.52;;
79761;SDS011;69249;42.122;24.734;2023-05-18T00:54:01;13.73;;;11.15;;
79761;SDS011;69249;42.122;24.734;2023-05-18T00:56:27;17.08;;;12.48;;
79761;SDS011;69249;42.122;24.734;2023-05-18T00:58:58;17.13;;;12.20;;
79761;SDS011;69249;42.122;24.734;2023-05-18T01:01:26;14.65;;;11.95;;
79761;SDS011;69249;42.122;24.734;2023-05-18T01:03:58;20.92;;;13.57;;
79761;SDS011;69249;42.122;24.734;2023-05-18T01:06:28;18.40;;;12.68;;
79761;SDS011;69249;42.122;24.734;2023-05-18T01:09:00;15.80;;;11.75;;
79761;SDS011;69249;42.122;24.734;2023-05-18T01:16:33;13.90;;;8.50;;
79761;SDS011;69249;42.122;24.734;2023-05-18T01:24:50;11.27;;;8.75;;
79761;SDS011;69249;42.122;24.734;2023-05-18T01:27:17;10.25;;;9.18;;
79761;SDS011;69249;42.122;24.734;2023-05-18T01:29:48;12.57;;;9.13;;
79761;SDS011;69249;42.122;24.734;2023-05-18T01:32:19;22.27;;;14.93;;
79761;SDS011;69249;42.122;24.734;2023-05-18T01:34:46;23.98;;;14.82;;
79761;SDS011;69249;42.122;24.734;2023-05-18T01:37:12;28.50;;;17.08;;
79761;SDS011;69249;42.122;24.734;2023-05-18T01:39:38;26.38;;;17.92;;
79761;SDS011;69249;42.122;24.734;2023-05-18T01:42:10;25.17;;;17.77;;
79761;SDS011;69249;42.122;24.734;2023-05-18T01:44:47;35.58;;;19.45;;
79761;SDS011;69249;42.122;24.734;2023-05-18T01:47:17;43.33;;;20.38;;
79761;SDS011;69249;42.122;24.734;2023-05-18T01:52:38;28.08;;;19.27;;
79761;SDS011;69249;42.122;24.734;2023-05-18T01:55:13;29.70;;;19.98;;
79761;SDS011;69249;42.122;24.734;2023-05-18T01:57:41;36.13;;;19.95;;
79761;SDS011;69249;42.122;24.734;2023-05-18T02:00:09;95.05;;;19.83;;
79761;SDS011;69249;42.122;24.734;2023-05-18T02:02:36;33.22;;;18.50;;
79761;SDS011;69249;42.122;24.734;2023-05-18T02:05:02;55.63;;;20.63;;
79761;SDS011;69249;42.122;24.734;2023-05-18T02:07:29;39.40;;;20.65;;
79761;SDS011;69249;42.122;24.734;2023-05-18T02:09:55;30.48;;;20.33;;
79761;SDS011;69249;42.122;24.734;2023-05-18T02:12:21;33.22;;;20.95;;
79761;SDS011;69249;42.122;24.734;2023-05-18T02:14:47;26.35;;;20.10;;
79761;SDS011;69249;42.122;24.734;2023-05-18T02:17:12;28.45;;;21.00;;
79761;SDS011;69249;42.122;24.734;2023-05-18T02:19:38;28.65;;;21.27;;
79761;SDS011;69249;42.122;24.734;2023-05-18T02:22:04;28.58;;;20.73;;
79761;SDS011;69249;42.122;24.734;2023-05-18T02:24:31;26.50;;;19.75;;
79761;SDS011;69249;42.122;24.734;2023-05-18T02:26:57;29.35;;;21.08;;
79761;SDS011;69249;42.122;24.734;2023-05-18T02:29:23;34.50;;;21.55;;
79761;SDS011;69249;42.122;24.734;2023-05-18T02:31:49;26.08;;;20.55;;
79761;SDS011;69249;42.122;24.734;2023-05-18T02:34:15;23.48;;;18.08;;
79761;SDS011;69249;42.122;24.734;2023-05-18T02:36:41;27.42;;;17.58;;
79761;SDS011;69249;42.122;24.734;2023-05-18T02:39:07;23.33;;;15.85;;
79761;SDS011;69249;42.122;24.734;2023-05-18T02:41:34;31.80;;;16.30;;
79761;SDS011;69249;42.122;24.734;2023-05-18T02:44:01;31.60;;;15.30;;
79761;SDS011;69249;42.122;24.734;2023-05-18T02:46:27;38.33;;;14.40;;
79761;SDS011;69249;42.122;24.734;2023-05-18T02:48:53;25.20;;;14.95;;
79761;SDS011;69249;42.122;24.734;2023-05-18T02:51:19;38.63;;;15.10;;
79761;SDS011;69249;42.122;24.734;2023-05-18T02:53:46;27.48;;;14.68;;
79761;SDS011;69249;42.122;24.734;2023-05-18T02:56:11;27.77;;;14.32;;
79761;SDS011;69249;42.122;24.734;2023-05-18T02:58:38;45.65;;;16.00;;
79761;SDS011;69249;42.122;24.734;2023-05-18T03:01:04;47.65;;;16.42;;
79761;SDS011;69249;42.122;24.734;2023-05-18T03:03:32;25.75;;;16.00;;
79761;SDS011;69249;42.122;24.734;2023-05-18T03:05:59;34.60;;;16.48;;
79761;SDS011;69249;42.122;24.734;2023-05-18T03:08:26;63.85;;;15.88;;
79761;SDS011;69249;42.122;24.734;2023-05-18T03:10:53;45.88;;;15.60;;
79761;SDS011;69249;42.122;24.734;2023-05-18T03:13:19;23.73;;;15.65;;
79761;SDS011;69249;42.122;24.734;2023-05-18T03:15:45;29.08;;;15.70;;
79761;SDS011;69249;42.122;24.734;2023-05-18T03:18:11;45.85;;;17.40;;
79761;SDS011;69249;42.122;24.734;2023-05-18T03:20:36;24.30;;;17.40;;
79761;SDS011;69249;42.122;24.734;2023-05-18T03:23:03;26.05;;;17.83;;
79761;SDS011;69249;42.122;24.734;2023-05-18T03:25:29;25.77;;;18.30;;
79761;SDS011;69249;42.122;24.734;2023-05-18T03:27:57;24.77;;;17.58;;
79761;SDS011;69249;42.122;24.734;2023-05-18T03:30:23;24.58;;;18.00;;
79761;SDS011;69249;42.122;24.734;2023-05-18T03:32:49;24.60;;;18.48;;
79761;SDS011;69249;42.122;24.734;2023-05-18T03:35:14;24.00;;;18.55;;
79761;SDS011;69249;42.122;24.734;2023-05-18T03:37:40;27.48;;;19.58;;
79761;SDS011;69249;42.122;24.734;2023-05-18T03:40:12;24.02;;;19.00;;
79761;SDS011;69249;42.122;24.734;2023-05-18T03:42:39;23.23;;;17.13;;
79761;SDS011;69249;42.122;24.734;2023-05-18T03:45:06;19.27;;;16.48;;
79761;SDS011;69249;42.122;24.734;2023-05-18T03:47:32;23.38;;;17.65;;
79761;SDS011;69249;42.122;24.734;2023-05-18T03:49:58;24.38;;;17.48;;
79761;SDS011;69249;42.122;24.734;2023-05-18T03:52:24;20.92;;;16.27;;
79761;SDS011;69249;42.122;24.734;2023-05-18T03:54:50;30.58;;;22.48;;
79761;SDS011;69249;42.122;24.734;2023-05-18T03:57:16;85.25;;;64.93;;
79761;SDS011;69249;42.122;24.734;2023-05-18T03:59:43;61.95;;;46.40;;
79761;SDS011;69249;42.122;24.734;2023-05-18T04:02:09;32.50;;;23.85;;
79761;SDS011;69249;42.122;24.734;2023-05-18T04:04:36;24.58;;;19.55;;
79761;SDS011;69249;42.122;24.734;2023-05-18T04:07:06;33.30;;;20.92;;
79761;SDS011;69249;42.122;24.734;2023-05-18T04:09:32;29.00;;;21.30;;
79761;SDS011;69249;42.122;24.734;2023-05-18T04:11:59;32.42;;;20.73;;
79761;SDS011;69249;42.122;24.734;2023-05-18T04:14:24;28.70;;;20.35;;
79761;SDS011;69249;42.122;24.734;2023-05-18T04:16:52;29.95;;;20.30;;
79761;SDS011;69249;42.122;24.734;2023-05-18T04:19:18;28.55;;;19.40;;
79761;SDS011;69249;42.122;24.734;2023-05-18T04:21:45;24.48;;;18.98;;
79761;SDS011;69249;42.122;24.734;2023-05-18T04:24:13;32.63;;;22.83;;
79761;SDS011;69249;42.122;24.734;2023-05-18T04:26:39;30.05;;;21.67;;
79761;SDS011;69249;42.122;24.734;2023-05-18T04:29:06;31.27;;;21.23;;
79761;SDS011;69249;42.122;24.734;2023-05-18T04:31:35;30.20;;;20.77;;
79761;SDS011;69249;42.122;24.734;2023-05-18T04:34:01;30.15;;;20.63;;
79761;SDS011;69249;42.122;24.734;2023-05-18T04:36:27;30.13;;;22.05;;
79761;SDS011;69249;42.122;24.734;2023-05-18T04:38:57;35.47;;;22.73;;
79761;SDS011;69249;42.122;24.734;2023-05-18T04:41:24;32.80;;;22.73;;
79761;SDS011;69249;42.122;24.734;2023-05-18T04:43:50;29.58;;;23.00;;
79761;SDS011;69249;42.122;24.734;2023-05-18T04:46:17;30.60;;;22.48;;
79761;SDS011;69249;42.122;24.734;2023-05-18T04:48:43;33.72;;;22.92;;
79761;SDS011;69249;42.122;24.734;2023-05-18T04:51:08;30.25;;;21.73;;
79761;SDS011;69249;42.122;24.734;2023-05-18T04:53:34;29.25;;;21.42;;
79761;SDS011;69249;42.122;24.734;2023-05-18T04:56:06;32.20;;;23.23;;
79761;SDS011;69249;42.122;24.734;2023-05-18T04:58:32;29.20;;;20.42;;
79761;SDS011;69249;42.122;24.734;2023-05-18T05:01:16;25.95;;;20.15;;
79761;SDS011;69249;42.122;24.734;2023-05-18T05:03:43;24.85;;;19.60;;
79761;SDS011;69249;42.122;24.734;2023-05-18T05:06:09;25.52;;;19.05;;
79761;SDS011;69249;42.122;24.734;2023-05-18T05:08:50;21.40;;;16.67;;
79761;SDS011;69249;42.122;24.734;2023-05-18T05:11:24;24.13;;;17.48;;
79761;SDS011;69249;42.122;24.734;2023-05-18T05:14:05;25.80;;;18.15;;
79761;SDS011;69249;42.122;24.734;2023-05-18T05:16:34;25.20;;;18.77;;
79761;SDS011;69249;42.122;24.734;2023-05-18T05:19:03;25.02;;;18.08;;
79761;SDS011;69249;42.122;24.734;2023-05-18T05:21:33;19.63;;;16.73;;
79761;SDS011;69249;42.122;24.734;2023-05-18T05:24:06;22.88;;;17.60;;
79761;SDS011;69249;42.122;24.734;2023-05-18T05:26:52;21.52;;;17.10;;
79761;SDS011;69249;42.122;24.734;2023-05-18T05:29:18;23.52;;;17.33;;
79761;SDS011;69249;42.122;24.734;2023-05-18T05:31:50;24.27;;;17.20;;
79761;SDS011;69249;42.122;24.734;2023-05-18T05:34:16;23.80;;;17.45;;
79761;SDS011;69249;42.122;24.734;2023-05-18T05:36:45;26.75;;;19.45;;
79761;SDS011;69249;42.122;24.734;2023-05-18T05:39:14;30.77;;;19.02;;
79761;SDS011;69249;42.122;24.734;2023-05-18T05:41:43;25.80;;;18.13;;
79761;SDS011;69249;42.122;24.734;2023-05-18T05:44:09;28.55;;;19.00;;
79761;SDS011;69249;42.122;24.734;2023-05-18T05:46:35;29.95;;;22.23;;
79761;SDS011;69249;42.122;24.734;2023-05-18T05:49:01;34.45;;;21.90;;
79761;SDS011;69249;42.122;24.734;2023-05-18T05:51:27;23.80;;;18.27;;
79761;SDS011;69249;42.122;24.734;2023-05-18T05:53:52;23.65;;;18.15;;
79761;SDS011;69249;42.122;24.734;2023-05-18T05:56:18;25.42;;;17.90;;
79761;SDS011;69249;42.122;24.734;2023-05-18T05:58:44;23.80;;;17.55;;
79761;SDS011;69249;42.122;24.734;2023-05-18T06:01:11;20.60;;;16.95;;
79761;SDS011;69249;42.122;24.734;2023-05-18T06:03:36;22.55;;;16.52;;
79761;SDS011;69249;42.122;24.734;2023-05-18T06:06:02;24.35;;;18.25;;
79761;SDS011;69249;42.122;24.734;2023-05-18T06:08:28;21.35;;;17.73;;
79761;SDS011;69249;42.122;24.734;2023-05-18T06:10:55;24.95;;;18.30;;
79761;SDS011;69249;42.122;24.734;2023-05-18T06:13:20;20.13;;;17.45;;
79761;SDS011;69249;42.122;24.734;2023-05-18T06:15:46;20.50;;;16.92;;
79761;SDS011;69249;42.122;24.734;2023-05-18T06:18:12;20.17;;;16.00;;
79761;SDS011;69249;42.122;24.734;2023-05-18T06:20:38;18.58;;;16.27;;
79761;SDS011;69249;42.122;24.734;2023-05-18T06:23:03;20.95;;;16.67;;
79761;SDS011;69249;42.122;24.734;2023-05-18T06:25:29;17.80;;;15.65;;
79761;SDS011;69249;42.122;24.734;2023-05-18T06:27:55;15.35;;;12.90;;
79761;SDS011;69249;42.122;24.734;2023-05-18T06:30:21;13.50;;;12.20;;
79761;SDS011;69249;42.122;24.734;2023-05-18T06:32:47;12.10;;;10.80;;
79761;SDS011;69249;42.122;24.734;2023-05-18T06:35:12;14.32;;;12.65;;
79761;SDS011;69249;42.122;24.734;2023-05-18T06:37:38;15.40;;;12.93;;
79761;SDS011;69249;42.122;24.734;2023-05-18T06:40:05;14.00;;;11.77;;
79761;SDS011;69249;42.122;24.734;2023-05-18T06:42:32;12.40;;;11.10;;
79761;SDS011;69249;42.122;24.734;2023-05-18T06:44:58;15.68;;;12.30;;
79761;SDS011;69249;42.122;24.734;2023-05-18T06:47:24;18.77;;;15.02;;
79761;SDS011;69249;42.122;24.734;2023-05-18T06:49:50;26.52;;;17.83;;
79761;SDS011;69249;42.122;24.734;2023-05-18T06:52:15;34.25;;;26.27;;
79761;SDS011;69249;42.122;24.734;2023-05-18T06:54:41;24.13;;;17.50;;
79761;SDS011;69249;42.122;24.734;2023-05-18T06:57:07;26.23;;;17.70;;
79761;SDS011;69249;42.122;24.734;2023-05-18T06:59:33;22.50;;;17.17;;
79761;SDS011;69249;42.122;24.734;2023-05-18T07:01:59;22.20;;;16.48;;
79761;SDS011;69249;42.122;24.734;2023-05-18T07:04:24;25.17;;;18.83;;
79761;SDS011;69249;42.122;24.734;2023-05-18T07:06:51;24.88;;;17.30;;
79761;SDS011;69249;42.122;24.734;2023-05-18T07:09:19;21.02;;;15.43;;
79761;SDS011;69249;42.122;24.734;2023-05-18T07:11:46;18.75;;;14.00;;
79761;SDS011;69249;42.122;24.734;2023-05-18T07:14:12;21.23;;;14.40;;
79761;SDS011;69249;42.122;24.734;2023-05-18T07:16:38;17.80;;;11.65;;
79761;SDS011;69249;42.122;24.734;2023-05-18T07:19:05;15.68;;;10.80;;
79761;SDS011;69249;42.122;24.734;2023-05-18T07:21:30;16.80;;;10.50;;
79761;SDS011;69249;42.122;24.734;2023-05-18T07:23:56;14.63;;;11.05;;
79761;SDS011;69249;42.122;24.734;2023-05-18T07:26:22;13.35;;;9.75;;
79761;SDS011;69249;42.122;24.734;2023-05-18T07:28:48;12.75;;;10.27;;
79761;SDS011;69249;42.122;24.734;2023-05-18T07:31:15;13.32;;;8.82;;
79761;SDS011;69249;42.122;24.734;2023-05-18T07:33:45;13.13;;;8.00;;
79761;SDS011;69249;42.122;24.734;2023-05-18T07:36:12;9.50;;;6.72;;
79761;SDS011;69249;42.122;24.734;2023-05-18T07:38:38;9.32;;;6.57;;
79761;SDS011;69249;42.122;24.734;2023-05-18T07:41:03;12.32;;;6.47;;
79761;SDS011;69249;42.122;24.734;2023-05-18T07:43:29;11.50;;;6.47;;
79761;SDS011;69249;42.122;24.734;2023-05-18T07:45:55;10.55;;;6.55;;
79761;SDS011;69249;42.122;24.734;2023-05-18T07:48:21;10.95;;;6.55;;
79761;SDS011;69249;42.122;24.734;2023-05-18T07:50:47;11.50;;;6.03;;
79761;SDS011;69249;42.122;24.734;2023-05-18T07:53:12;9.20;;;6.25;;
79761;SDS011;69249;42.122;24.734;2023-05-18T07:55:38;10.13;;;5.82;;
79761;SDS011;69249;42.122;24.734;2023-05-18T07:58:06;9.38;;;5.95;;
79761;SDS011;69249;42.122;24.734;2023-05-18T08:00:32;8.07;;;5.25;;
79761;SDS011;69249;42.122;24.734;2023-05-18T08:02:58;6.90;;;5.32;;
79761;SDS011;69249;42.122;24.734;2023-05-18T08:05:25;12.57;;;5.20;;
79761;SDS011;69249;42.122;24.734;2023-05-18T08:07:53;5.85;;;5.13;;
79761;SDS011;69249;42.122;24.734;2023-05-18T08:10:18;7.70;;;4.85;;
79761;SDS011;69249;42.122;24.734;2023-05-18T08:12:44;14.60;;;5.60;;
79761;SDS011;69249;42.122;24.734;2023-05-18T08:15:10;6.72;;;4.55;;
79761;SDS011;69249;42.122;24.734;2023-05-18T08:17:36;7.43;;;4.60;;
79761;SDS011;69249;42.122;24.734;2023-05-18T08:20:05;5.78;;;5.00;;
79761;SDS011;69249;42.122;24.734;2023-05-18T08:22:32;7.22;;;4.90;;
79761;SDS011;69249;42.122;24.734;2023-05-18T08:24:58;8.00;;;5.20;;
79761;SDS011;69249;42.122;24.734;2023-05-18T08:27:25;7.40;;;4.85;;
79761;SDS011;69249;42.122;24.734;2023-05-18T08:29:53;7.82;;;5.05;;
79761;SDS011;69249;42.122;24.734;2023-05-18T08:32:22;6.10;;;5.00;;
79761;SDS011;69249;42.122;24.734;2023-05-18T08:34:48;8.80;;;5.07;;
79761;SDS011;69249;42.122;24.734;2023-05-18T08:37:15;8.15;;;4.75;;
79761;SDS011;69249;42.122;24.734;2023-05-18T08:39:41;13.32;;;8.48;;
79761;SDS011;69249;42.122;24.734;2023-05-18T08:42:21;10.32;;;6.57;;
79761;SDS011;69249;42.122;24.734;2023-05-18T08:45:01;5.63;;;5.05;;
79761;SDS011;69249;42.122;24.734;2023-05-18T08:47:28;7.72;;;5.43;;
79761;SDS011;69249;42.122;24.734;2023-05-18T08:49:55;6.10;;;4.97;;
79761;SDS011;69249;42.122;24.734;2023-05-18T08:52:23;9.35;;;4.40;;
79761;SDS011;69249;42.122;24.734;2023-05-18T08:54:53;7.75;;;4.97;;
79761;SDS011;69249;42.122;24.734;2023-05-18T08:57:21;6.72;;;5.25;;
79761;SDS011;69249;42.122;24.734;2023-05-18T08:59:47;11.77;;;5.10;;
79761;SDS011;69249;42.122;24.734;2023-05-18T09:02:15;5.22;;;4.13;;
79761;SDS011;69249;42.122;24.734;2023-05-18T09:04:42;6.72;;;4.07;;
79761;SDS011;69249;42.122;24.734;2023-05-18T09:07:09;8.20;;;4.85;;
79761;SDS011;69249;42.122;24.734;2023-05-18T09:09:35;4.68;;;3.90;;
79761;SDS011;69249;42.122;24.734;2023-05-18T09:12:02;5.07;;;3.80;;
79761;SDS011;69249;42.122;24.734;2023-05-18T09:14:30;4.85;;;3.70;;
79761;SDS011;69249;42.122;24.734;2023-05-18T09:16:56;4.93;;;3.40;;
79761;SDS011;69249;42.122;24.734;2023-05-18T09:19:23;7.30;;;3.65;;
79761;SDS011;69249;42.122;24.734;2023-05-18T09:21:49;4.65;;;3.35;;
79761;SDS011;69249;42.122;24.734;2023-05-18T09:24:16;7.13;;;3.20;;
79761;SDS011;69249;42.122;24.734;2023-05-18T09:26:45;6.00;;;2.75;;
79761;SDS011;69249;42.122;24.734;2023-05-18T09:29:18;3.38;;;2.60;;
79761;SDS011;69249;42.122;24.734;2023-05-18T09:31:47;5.38;;;2.53;;
79761;SDS011;69249;42.122;24.734;2023-05-18T09:34:14;4.10;;;2.30;;
79761;SDS011;69249;42.122;24.734;2023-05-18T09:36:40;3.97;;;2.28;;
79761;SDS011;69249;42.122;24.734;2023-05-18T09:39:11;6.40;;;2.92;;
79761;SDS011;69249;42.122;24.734;2023-05-18T09:41:46;6.00;;;2.45;;
79761;SDS011;69249;42.122;24.734;2023-05-18T09:44:32;3.50;;;2.50;;
79761;SDS011;69249;42.122;24.734;2023-05-18T09:46:58;8.68;;;2.80;;
79761;SDS011;69249;42.122;24.734;2023-05-18T09:49:24;3.75;;;2.65;;
79761;SDS011;69249;42.122;24.734;2023-05-18T09:51:53;5.85;;;2.95;;
79761;SDS011;69249;42.122;24.734;2023-05-18T09:54:28;8.43;;;3.00;;
79761;SDS011;69249;42.122;24.734;2023-05-18T09:56:55;6.10;;;3.03;;
79761;SDS011;69249;42.122;24.734;2023-05-18T09:59:24;3.67;;;2.47;;
79761;SDS011;69249;42.122;24.734;2023-05-18T10:02:00;3.15;;;2.20;;
79761;SDS011;69249;42.122;24.734;2023-05-18T10:07:10;6.15;;;2.70;;
79761;SDS011;69249;42.122;24.734;2023-05-18T10:09:38;6.38;;;2.75;;
79761;SDS011;69249;42.122;24.734;2023-05-18T10:12:16;2.85;;;2.28;;
79761;SDS011;69249;42.122;24.734;2023-05-18T10:14:44;8.38;;;2.50;;
79761;SDS011;69249;42.122;24.734;2023-05-18T10:17:13;5.40;;;2.90;;
79761;SDS011;69249;42.122;24.734;2023-05-18T10:19:42;7.30;;;2.25;;
79761;SDS011;69249;42.122;24.734;2023-05-18T10:22:10;4.32;;;2.38;;
79761;SDS011;69249;42.122;24.734;2023-05-18T10:24:41;3.95;;;2.72;;
79761;SDS011;69249;42.122;24.734;2023-05-18T10:27:13;9.38;;;2.88;;
79761;SDS011;69249;42.122;24.734;2023-05-18T10:29:41;4.57;;;2.28;;
79761;SDS011;69249;42.122;24.734;2023-05-18T10:32:10;2.75;;;2.05;;
79761;SDS011;69249;42.122;24.734;2023-05-18T10:34:36;3.65;;;2.00;;
79761;SDS011;69249;42.122;24.734;2023-05-18T10:37:03;3.00;;;2.40;;
79761;SDS011;69249;42.122;24.734;2023-05-18T10:39:31;5.28;;;2.42;;
79761;SDS011;69249;42.122;24.734;2023-05-18T10:42:01;7.00;;;2.50;;
79761;SDS011;69249;42.122;24.734;2023-05-18T10:44:28;4.40;;;2.45;;
79761;SDS011;69249;42.122;24.734;2023-05-18T10:46:55;7.38;;;2.40;;
79761;SDS011;69249;42.122;24.734;2023-05-18T10:49:21;7.00;;;2.00;;
79761;SDS011;69249;42.122;24.734;2023-05-18T10:51:50;4.32;;;2.10;;
79761;SDS011;69249;42.122;24.734;2023-05-18T10:54:20;5.13;;;2.42;;
79761;SDS011;69249;42.122;24.734;2023-05-18T10:56:50;6.45;;;2.38;;
79761;SDS011;69249;42.122;24.734;2023-05-18T10:59:19;2.40;;;2.05;;
79761;SDS011;69249;42.122;24.734;2023-05-18T11:01:47;6.70;;;2.20;;
79761;SDS011;69249;42.122;24.734;2023-05-18T11:04:15;4.82;;;2.40;;
79761;SDS011;69249;42.122;24.734;2023-05-18T11:06:52;8.50;;;2.60;;
79761;SDS011;69249;42.122;24.734;2023-05-18T11:09:22;4.47;;;2.38;;
79761;SDS011;69249;42.122;24.734;2023-05-18T11:11:52;4.80;;;1.80;;
79761;SDS011;69249;42.122;24.734;2023-05-18T11:14:27;3.40;;;2.22;;
79761;SDS011;69249;42.122;24.734;2023-05-18T11:22:45;6.93;;;2.45;;
79761;SDS011;69249;42.122;24.734;2023-05-18T11:28:00;3.58;;;2.40;;
79761;SDS011;69249;42.122;24.734;2023-05-18T11:41:38;9.20;;;6.95;;
79761;SDS011;69249;42.122;24.734;2023-05-18T11:46:36;14.57;;;7.68;;
79761;SDS011;69249;42.122;24.734;2023-05-18T11:49:14;6.43;;;3.20;;
79761;SDS011;69249;42.122;24.734;2023-05-18T11:54:27;8.20;;;4.07;;
79761;SDS011;69249;42.122;24.734;2023-05-18T11:56:57;9.55;;;4.05;;
79761;SDS011;69249;42.122;24.734;2023-05-18T11:59:30;6.38;;;4.35;;
79761;SDS011;69249;42.122;24.734;2023-05-18T12:01:58;7.60;;;4.63;;
79761;SDS011;69249;42.122;24.734;2023-05-18T12:04:25;14.25;;;5.18;;
79761;SDS011;69249;42.122;24.734;2023-05-18T12:06:52;10.73;;;6.05;;
79761;SDS011;69249;42.122;24.734;2023-05-18T12:09:19;6.60;;;5.82;;
79761;SDS011;69249;42.122;24.734;2023-05-18T12:11:45;13.55;;;6.95;;
79761;SDS011;69249;42.122;24.734;2023-05-18T12:14:11;13.88;;;6.72;;
79761;SDS011;69249;42.122;24.734;2023-05-18T12:16:40;11.93;;;6.45;;
79761;SDS011;69249;42.122;24.734;2023-05-18T12:19:10;9.30;;;6.55;;
79761;SDS011;69249;42.122;24.734;2023-05-18T12:21:36;12.75;;;5.82;;
79761;SDS011;69249;42.122;24.734;2023-05-18T12:24:02;9.48;;;6.25;;
79761;SDS011;69249;42.122;24.734;2023-05-18T12:26:28;9.07;;;6.40;;
79761;SDS011;69249;42.122;24.734;2023-05-18T12:28:56;9.60;;;5.63;;
79761;SDS011;69249;42.122;24.734;2023-05-18T12:31:26;9.13;;;5.85;;
79761;SDS011;69249;42.122;24.734;2023-05-18T12:33:54;15.25;;;6.40;;
79761;SDS011;69249;42.122;24.734;2023-05-18T12:36:21;12.45;;;7.00;;
79761;SDS011;69249;42.122;24.734;2023-05-18T12:38:47;8.65;;;6.50;;
79761;SDS011;69249;42.122;24.734;2023-05-18T12:41:24;13.23;;;6.60;;
79761;SDS011;69249;42.122;24.734;2023-05-18T12:43:54;9.32;;;6.18;;
79761;SDS011;69249;42.122;24.734;2023-05-18T12:46:20;7.82;;;5.38;;
79761;SDS011;69249;42.122;24.734;2023-05-18T12:48:57;8.25;;;5.68;;
79761;SDS011;69249;42.122;24.734;2023-05-18T12:51:29;7.22;;;5.20;;
79761;SDS011;69249;42.122;24.734;2023-05-18T12:53:56;11.35;;;5.88;;
79761;SDS011;69249;42.122;24.734;2023-05-18T12:56:22;11.07;;;5.50;;
79761;SDS011;69249;42.122;24.734;2023-05-18T12:58:58;7.25;;;5.05;;
79761;SDS011;69249;42.122;24.734;2023-05-18T13:01:26;7.78;;;4.70;;
79761;SDS011;69249;42.122;24.734;2023-05-18T13:03:56;8.30;;;4.93;;
79761;SDS011;69249;42.122;24.734;2023-05-18T13:06:23;9.50;;;4.93;;
79761;SDS011;69249;42.122;24.734;2023-05-18T13:08:52;6.70;;;4.60;;
79761;SDS011;69249;42.122;24.734;2023-05-18T13:11:22;10.25;;;4.78;;
79761;SDS011;69249;42.122;24.734;2023-05-18T13:13:59;7.30;;;4.15;;
79761;SDS011;69249;42.122;24.734;2023-05-18T13:16:30;7.85;;;4.15;;
79761;SDS011;69249;42.122;24.734;2023-05-18T13:18:58;6.32;;;4.15;;
79761;SDS011;69249;42.122;24.734;2023-05-18T13:21:28;7.47;;;5.20;;
79761;SDS011;69249;42.122;24.734;2023-05-18T13:23:54;5.63;;;4.00;;
79761;SDS011;69249;42.122;24.734;2023-05-18T13:26:20;4.20;;;3.80;;
79761;SDS011;69249;42.122;24.734;2023-05-18T13:28:48;5.65;;;3.75;;
79761;SDS011;69249;42.122;24.734;2023-05-18T13:31:19;8.18;;;3.72;;
79761;SDS011;69249;42.122;24.734;2023-05-18T13:33:45;4.28;;;3.40;;
79761;SDS011;69249;42.122;24.734;2023-05-18T13:36:11;4.18;;;3.20;;
79761;SDS011;69249;42.122;24.734;2023-05-18T13:38:37;6.20;;;3.47;;
79761;SDS011;69249;42.122;24.734;2023-05-18T13:41:03;5.30;;;4.03;;
79761;SDS011;69249;42.122;24.734;2023-05-18T13:43:30;7.68;;;3.97;;
79761;SDS011;69249;42.122;24.734;2023-05-18T13:45:57;4.47;;;3.35;;
79761;SDS011;69249;42.122;24.734;2023-05-18T13:48:22;5.85;;;3.38;;
79761;SDS011;69249;42.122;24.734;2023-05-18T13:50:49;10.77;;;3.78;;
79761;SDS011;69249;42.122;24.734;2023-05-18T13:53:15;8.40;;;3.50;;
79761;SDS011;69249;42.122;24.734;2023-05-18T13:55:40;10.10;;;4.07;;
79761;SDS011;69249;42.122;24.734;2023-05-18T13:58:06;12.00;;;8.00;;
79761;SDS011;69249;42.122;24.734;2023-05-18T14:00:32;6.78;;;3.78;;
79761;SDS011;69249;42.122;24.734;2023-05-18T14:02:58;5.25;;;4.43;;
79761;SDS011;69249;42.122;24.734;2023-05-18T14:05:24;6.65;;;4.30;;
79761;SDS011;69249;42.122;24.734;2023-05-18T14:07:50;5.03;;;3.90;;
79761;SDS011;69249;42.122;24.734;2023-05-18T14:10:19;5.28;;;3.90;;
79761;SDS011;69249;42.122;24.734;2023-05-18T14:12:45;5.55;;;3.83;;
79761;SDS011;69249;42.122;24.734;2023-05-18T14:15:11;7.63;;;4.50;;
79761;SDS011;69249;42.122;24.734;2023-05-18T14:17:37;9.10;;;6.07;;
79761;SDS011;69249;42.122;24.734;2023-05-18T14:20:04;10.23;;;4.35;;
79761;SDS011;69249;42.122;24.734;2023-05-18T14:22:30;6.75;;;3.85;;
79761;SDS011;69249;42.122;24.734;2023-05-18T14:24:56;5.88;;;4.43;;
79761;SDS011;69249;42.122;24.734;2023-05-18T14:27:22;4.03;;;3.63;;
79761;SDS011;69249;42.122;24.734;2023-05-18T14:29:48;7.20;;;3.83;;
79761;SDS011;69249;42.122;24.734;2023-05-18T14:32:14;4.72;;;3.55;;
79761;SDS011;69249;42.122;24.734;2023-05-18T14:34:40;5.47;;;4.00;;
79761;SDS011;69249;42.122;24.734;2023-05-18T14:37:06;6.60;;;3.70;;
79761;SDS011;69249;42.122;24.734;2023-05-18T14:39:32;8.13;;;4.40;;
79761;SDS011;69249;42.122;24.734;2023-05-18T14:41:57;3.78;;;3.30;;
79761;SDS011;69249;42.122;24.734;2023-05-18T14:44:23;7.40;;;4.60;;
79761;SDS011;69249;42.122;24.734;2023-05-18T14:46:49;9.23;;;4.03;;
79761;SDS011;69249;42.122;24.734;2023-05-18T14:49:15;8.95;;;4.57;;
79761;SDS011;69249;42.122;24.734;2023-05-18T14:51:41;5.18;;;3.72;;
79761;SDS011;69249;42.122;24.734;2023-05-18T14:54:07;10.75;;;4.50;;
79761;SDS011;69249;42.122;24.734;2023-05-18T14:56:33;4.53;;;3.30;;
79761;SDS011;69249;42.122;24.734;2023-05-18T14:58:58;4.85;;;3.50;;
79761;SDS011;69249;42.122;24.734;2023-05-18T15:01:24;4.47;;;3.10;;
79761;SDS011;69249;42.122;24.734;2023-05-18T15:03:50;3.80;;;3.35;;